Time;durP1;ratioP1;P1;durP2;ratioP2;P2;SDS_P1;SDS_P2;PMS_P1;PMS_P2;Temp;Humidity;BMP_temperature;BMP_pressure;BME280_temperature;BME280_humidity;BME280_pressure;Samples;Min_cycle;Max_cycle;Signal;HPM_P1;HPM_P2
2022/04/20 00:00:44;;;;;;;16.13;8.80;;;;;;;;;;5001411;28;20447;-64
2022/04/20 00:03:10;;;;;;;14.50;9.02;;;;;;;;;;5002315;28;20552;-64
2022/04/20 00:05:38;;;;;;;14.85;9.18;;;;;;;;;;5001797;28;20462;-63
2022/04/20 00:08:03;;;;;;;13.95;9.38;;;;;;;;;;5001224;28;20048;-64
2022/04/20 00:10:31;;;;;;;14.60;8.93;;;;;;;;;;5000898;28;20033;-64
2022/04/20 00:12:56;;;;;;;12.30;9.02;;;;;;;;;;4991919;28;20056;-64
2022/04/20 00:15:23;;;;;;;14.05;8.98;;;;;;;;;;5002105;28;20068;-63
2022/04/20 00:17:51;;;;;;;13.80;9.25;;;;;;;;;;5001736;28;20830;-64
2022/04/20 00:20:16;;;;;;;13.18;8.27;;;;;;;;;;4999046;28;20389;-63
2022/04/20 00:22:42;;;;;;;14.05;8.68;;;;;;;;;;5001018;28;20084;-63
2022/04/20 00:25:08;;;;;;;14.30;9.90;;;;;;;;;;5000990;28;20067;-64
2022/04/20 00:27:36;;;;;;;14.35;9.25;;;;;;;;;;5001515;28;20033;-66
2022/04/20 00:30:03;;;;;;;16.30;9.57;;;;;;;;;;5001571;28;20457;-63
2022/04/20 00:32:29;;;;;;;13.10;8.70;;;;;;;;;;5001040;28;20634;-64
2022/04/20 00:34:55;;;;;;;15.75;9.40;;;;;;;;;;5001288;28;20051;-63
2022/04/20 00:37:20;;;;;;;16.08;9.43;;;;;;;;;;4998718;28;20037;-65
2022/04/20 00:39:45;;;;;;;13.63;9.25;;;;;;;;;;5014475;28;20071;-64
2022/04/20 00:42:11;;;;;;;15.98;9.98;;;;;;;;;;5000753;28;20408;-63
2022/04/20 00:44:36;;;;;;;15.40;9.55;;;;;;;;;;5000871;28;20240;-64
2022/04/20 00:47:02;;;;;;;15.30;9.60;;;;;;;;;;5008900;28;20201;-65
2022/04/20 00:49:29;;;;;;;17.17;9.35;;;;;;;;;;5000996;28;20294;-65
2022/04/20 00:51:59;;;;;;;17.70;10.30;;;;;;;;;;5000474;28;20511;-64
2022/04/20 00:54:25;;;;;;;15.55;9.27;;;;;;;;;;5000929;28;20678;-64
2022/04/20 00:56:52;;;;;;;16.70;9.60;;;;;;;;;;5000811;28;20125;-64
2022/04/20 00:59:20;;;;;;;16.13;9.80;;;;;;;;;;5009455;28;20037;-63
2022/04/20 01:01:45;;;;;;;13.57;9.68;;;;;;;;;;5000222;28;20106;-63
2022/04/20 01:04:11;;;;;;;16.88;10.07;;;;;;;;;;5014907;28;20075;-64
2022/04/20 01:06:36;;;;;;;15.85;10.13;;;;;;;;;;4998626;28;20603;-63
2022/04/20 01:09:02;;;;;;;14.30;9.65;;;;;;;;;;5000268;28;20033;-63
2022/04/20 01:11:27;;;;;;;14.35;9.30;;;;;;;;;;5000511;28;20033;-65
2022/04/20 01:13:53;;;;;;;16.05;9.55;;;;;;;;;;5003905;28;20541;-64
2022/04/20 01:16:18;;;;;;;19.98;10.05;;;;;;;;;;5000198;28;20028;-64
2022/04/20 01:18:44;;;;;;;20.05;10.02;;;;;;;;;;5000918;28;20048;-64
2022/04/20 01:21:12;;;;;;;14.30;10.10;;;;;;;;;;5003218;28;20034;-64
2022/04/20 01:23:38;;;;;;;14.38;9.43;;;;;;;;;;5004072;28;20180;-64
2022/04/20 01:26:08;;;;;;;16.42;9.68;;;;;;;;;;5000395;28;20240;-64
2022/04/20 01:28:36;;;;;;;13.83;10.03;;;;;;;;;;5000135;28;20029;-64
2022/04/20 01:31:02;;;;;;;14.35;9.52;;;;;;;;;;5000914;28;20379;-63
2022/04/20 01:33:28;;;;;;;16.70;9.90;;;;;;;;;;4999818;28;20060;-63
2022/04/20 01:35:54;;;;;;;16.17;9.07;;;;;;;;;;5000868;28;20037;-63
2022/04/20 01:38:19;;;;;;;16.63;10.10;;;;;;;;;;4999874;28;20197;-63
2022/04/20 01:40:44;;;;;;;15.05;9.90;;;;;;;;;;5000315;28;20432;-64
2022/04/20 01:43:09;;;;;;;16.33;9.23;;;;;;;;;;4999574;28;20211;-64
2022/04/20 01:45:37;;;;;;;13.80;9.60;;;;;;;;;;4998387;28;20924;-63
2022/04/20 01:48:06;;;;;;;13.88;9.70;;;;;;;;;;4998357;28;20035;-63
2022/04/20 01:50:31;;;;;;;15.82;9.77;;;;;;;;;;5014254;28;20560;-63
2022/04/20 01:52:59;;;;;;;13.75;9.10;;;;;;;;;;4999804;28;20025;-63
2022/04/20 01:55:25;;;;;;;14.95;9.77;;;;;;;;;;4998512;28;20228;-64
2022/04/20 01:57:50;;;;;;;15.88;9.73;;;;;;;;;;5000094;28;20112;-64
2022/04/20 02:00:16;;;;;;;15.80;9.95;;;;;;;;;;4999442;28;20383;-63
2022/04/20 02:02:44;;;;;;;15.02;9.73;;;;;;;;;;4998905;28;20126;-64
2022/04/20 02:05:11;;;;;;;14.63;9.05;;;;;;;;;;4998882;28;20366;-64
2022/04/20 02:07:37;;;;;;;14.18;9.30;;;;;;;;;;4999275;28;20055;-64
2022/04/20 02:10:03;;;;;;;14.88;9.60;;;;;;;;;;5014283;28;20028;-63
2022/04/20 02:12:29;;;;;;;16.80;8.70;;;;;;;;;;5000047;28;20029;-64
2022/04/20 02:14:54;;;;;;;17.10;9.93;;;;;;;;;;4998737;28;20323;-63
2022/04/20 02:17:20;;;;;;;16.67;9.57;;;;;;;;;;4999872;28;20033;-64
2022/04/20 02:19:48;;;;;;;13.20;9.32;;;;;;;;;;4996915;28;20870;-64
2022/04/20 02:22:14;;;;;;;13.60;9.40;;;;;;;;;;4998634;28;20030;-64
2022/04/20 02:24:39;;;;;;;16.50;9.40;;;;;;;;;;4996574;28;20532;-64
2022/04/20 02:27:05;;;;;;;14.10;9.10;;;;;;;;;;4999450;28;20192;-64
2022/04/20 02:29:30;;;;;;;16.95;9.30;;;;;;;;;;4997559;28;20040;-64
2022/04/20 02:31:56;;;;;;;13.02;9.48;;;;;;;;;;4996775;28;20164;-64
2022/04/20 02:34:23;;;;;;;12.68;8.70;;;;;;;;;;4999063;28;20029;-65
2022/04/20 02:36:49;;;;;;;13.30;9.13;;;;;;;;;;4997487;28;20677;-64
2022/04/20 02:39:15;;;;;;;15.00;8.98;;;;;;;;;;4999522;28;20041;-64
2022/04/20 02:41:41;;;;;;;15.20;8.65;;;;;;;;;;4999714;28;20287;-64
2022/04/20 02:44:07;;;;;;;12.38;8.90;;;;;;;;;;4998164;28;21410;-64
2022/04/20 02:46:33;;;;;;;11.90;9.18;;;;;;;;;;4998668;28;20021;-63
2022/04/20 02:48:58;;;;;;;15.20;8.80;;;;;;;;;;5014085;28;20180;-63
2022/04/20 02:51:24;;;;;;;15.15;8.93;;;;;;;;;;4998924;28;20386;-64
2022/04/20 02:53:49;;;;;;;16.40;9.73;;;;;;;;;;4999098;28;20509;-64
2022/04/20 02:56:14;;;;;;;13.30;8.73;;;;;;;;;;4996376;28;20717;-64
2022/04/20 02:58:42;;;;;;;12.13;9.38;;;;;;;;;;4997200;28;20313;-64
2022/04/20 03:01:07;;;;;;;16.83;9.48;;;;;;;;;;4997950;28;20044;-63
2022/04/20 03:03:33;;;;;;;16.08;9.43;;;;;;;;;;4996227;28;20041;-63
2022/04/20 03:05:58;;;;;;;12.90;8.75;;;;;;;;;;4997001;28;20035;-64
2022/04/20 03:08:24;;;;;;;15.13;9.90;;;;;;;;;;5006799;28;20199;-63
2022/04/20 03:10:50;;;;;;;16.92;9.65;;;;;;;;;;4999391;28;20055;-62
2022/04/20 03:13:15;;;;;;;16.50;9.40;;;;;;;;;;4999196;28;20206;-64
2022/04/20 03:15:40;;;;;;;14.02;9.38;;;;;;;;;;4998349;28;20029;-63
2022/04/20 03:18:08;;;;;;;13.68;9.18;;;;;;;;;;4997962;28;20536;-64
2022/04/20 03:20:33;;;;;;;16.67;9.15;;;;;;;;;;4998497;28;20029;-64
2022/04/20 03:22:59;;;;;;;14.18;9.35;;;;;;;;;;4999561;28;22333;-63
2022/04/20 03:25:25;;;;;;;14.88;9.55;;;;;;;;;;5006105;28;20581;-63
2022/04/20 03:27:50;;;;;;;16.45;10.02;;;;;;;;;;4998218;28;20209;-64
2022/04/20 03:30:17;;;;;;;19.83;10.82;;;;;;;;;;4998403;28;20036;-66
2022/04/20 03:32:43;;;;;;;15.25;10.38;;;;;;;;;;5007424;28;20029;-63
2022/04/20 03:35:09;;;;;;;17.17;10.85;;;;;;;;;;4997643;28;21053;-66
2022/04/20 03:37:37;;;;;;;15.48;9.80;;;;;;;;;;4996524;28;20317;-63
2022/04/20 03:40:03;;;;;;;17.15;9.70;;;;;;;;;;5013978;28;20456;-65
2022/04/20 03:42:29;;;;;;;15.88;9.93;;;;;;;;;;5012207;28;20338;-64
2022/04/20 03:44:54;;;;;;;13.25;8.93;;;;;;;;;;5001040;28;20041;-64
2022/04/20 03:47:19;;;;;;;15.23;9.15;;;;;;;;;;5002210;28;20316;-64
2022/04/20 03:49:45;;;;;;;13.57;9.10;;;;;;;;;;5001409;28;20392;-64
2022/04/20 03:52:10;;;;;;;16.02;9.02;;;;;;;;;;5002250;28;20677;-63
2022/04/20 03:54:35;;;;;;;13.98;9.32;;;;;;;;;;5002048;28;20608;-64
2022/04/20 03:57:04;;;;;;;16.25;10.18;;;;;;;;;;5002556;28;20069;-63
2022/04/20 03:59:30;;;;;;;16.08;9.65;;;;;;;;;;5001152;28;20678;-63
2022/04/20 04:01:55;;;;;;;14.95;10.05;;;;;;;;;;4999893;28;20117;-64
2022/04/20 04:04:21;;;;;;;20.58;10.90;;;;;;;;;;5001187;28;20116;-63
2022/04/20 04:06:47;;;;;;;17.25;10.70;;;;;;;;;;5001493;28;20073;-64
2022/04/20 04:09:17;;;;;;;14.90;10.20;;;;;;;;;;5002783;28;20037;-64
2022/04/20 04:11:44;;;;;;;13.65;8.57;;;;;;;;;;5015922;28;20037;-65
2022/04/20 04:14:10;;;;;;;15.27;9.00;;;;;;;;;;5000853;28;20418;-64
2022/04/20 04:16:36;;;;;;;19.40;9.50;;;;;;;;;;5016115;28;20084;-64
2022/04/20 04:19:05;;;;;;;18.10;10.18;;;;;;;;;;5002342;28;20505;-64
2022/04/20 04:21:31;;;;;;;21.27;11.25;;;;;;;;;;5002030;28;20060;-64
2022/04/20 04:23:59;;;;;;;19.00;10.20;;;;;;;;;;5002234;28;21755;-65
2022/04/20 04:26:25;;;;;;;15.82;9.45;;;;;;;;;;5001820;28;20171;-64
2022/04/20 04:28:51;;;;;;;17.13;9.05;;;;;;;;;;5000925;28;20222;-64
2022/04/20 04:31:16;;;;;;;18.92;9.63;;;;;;;;;;5001870;28;20150;-64
2022/04/20 04:33:41;;;;;;;15.07;9.25;;;;;;;;;;4999983;28;20033;-64
2022/04/20 04:36:09;;;;;;;14.38;8.48;;;;;;;;;;5010201;28;20032;-63
2022/04/20 04:38:34;;;;;;;14.15;9.13;;;;;;;;;;5000175;28;20058;-66
2022/04/20 04:40:59;;;;;;;15.25;9.23;;;;;;;;;;5015556;28;20051;-63
2022/04/20 04:43:25;;;;;;;15.55;9.80;;;;;;;;;;5001840;28;20056;-64
2022/04/20 04:48:38;;;;;;;13.30;8.77;;;;;;;;;;5002212;28;20051;-65
2022/04/20 04:51:08;;;;;;;13.35;8.10;;;;;;;;;;5015719;28;20037;-64
2022/04/20 04:53:33;;;;;;;11.25;7.57;;;;;;;;;;5000294;28;20114;-64
2022/04/20 04:55:59;;;;;;;10.13;7.20;;;;;;;;;;4999758;28;20191;-65
2022/04/20 04:58:24;;;;;;;11.25;7.38;;;;;;;;;;4999110;28;20039;-64
2022/04/20 05:00:49;;;;;;;12.35;6.93;;;;;;;;;;5003570;28;20426;-63
2022/04/20 05:03:17;;;;;;;12.05;7.55;;;;;;;;;;4999917;28;20163;-65
2022/04/20 05:05:43;;;;;;;10.52;7.10;;;;;;;;;;5000263;28;20029;-65
2022/04/20 05:08:08;;;;;;;13.02;7.40;;;;;;;;;;5000831;28;20029;-65
2022/04/20 05:10:34;;;;;;;10.63;7.00;;;;;;;;;;5000165;28;20522;-63
2022/04/20 05:13:00;;;;;;;10.77;6.57;;;;;;;;;;5000726;28;20049;-65
2022/04/20 05:15:26;;;;;;;9.52;6.50;;;;;;;;;;4998155;28;20152;-65
2022/04/20 05:17:51;;;;;;;8.20;6.43;;;;;;;;;;4999748;28;20552;-64
2022/04/20 05:20:19;;;;;;;8.73;6.43;;;;;;;;;;5000188;28;20028;-66
2022/04/20 05:22:44;;;;;;;13.52;6.80;;;;;;;;;;4999509;28;20045;-64
2022/04/20 05:25:10;;;;;;;12.18;6.45;;;;;;;;;;5000051;28;20068;-63
2022/04/20 05:27:35;;;;;;;11.10;6.95;;;;;;;;;;4997395;28;20624;-65
2022/04/20 05:30:00;;;;;;;10.20;6.32;;;;;;;;;;4996995;28;20139;-65
2022/04/20 05:32:26;;;;;;;11.30;6.13;;;;;;;;;;4980985;28;20373;-65
2022/04/20 05:34:51;;;;;;;10.00;6.38;;;;;;;;;;5009684;28;20029;-66
2022/04/20 05:42:46;;;;;;;10.40;6.35;;;;;;;;;;5011830;28;20459;-64
2022/04/20 05:45:11;;;;;;;11.73;6.50;;;;;;;;;;4996902;28;20026;-65
2022/04/20 05:47:38;;;;;;;10.93;7.22;;;;;;;;;;5000387;28;20149;-64
2022/04/20 05:50:04;;;;;;;10.00;6.22;;;;;;;;;;4998362;28;20230;-66
2022/04/20 05:52:29;;;;;;;9.18;6.13;;;;;;;;;;5009562;28;20648;-65
2022/04/20 05:54:57;;;;;;;8.85;6.10;;;;;;;;;;5014398;28;20119;-65
2022/04/20 05:57:24;;;;;;;10.38;6.60;;;;;;;;;;4997909;28;20179;-65
2022/04/20 05:59:50;;;;;;;11.05;7.00;;;;;;;;;;4997464;28;20588;-65
2022/04/20 06:02:16;;;;;;;10.48;6.78;;;;;;;;;;4999368;28;20028;-66
2022/04/20 06:04:42;;;;;;;10.32;6.00;;;;;;;;;;4999141;28;20132;-66
2022/04/20 06:07:08;;;;;;;11.43;6.38;;;;;;;;;;4998359;28;20418;-65
2022/04/20 06:09:33;;;;;;;9.80;6.55;;;;;;;;;;5000284;28;20255;-65
2022/04/20 06:12:01;;;;;;;9.90;5.38;;;;;;;;;;4999676;28;20055;-64
2022/04/20 06:14:29;;;;;;;10.20;6.20;;;;;;;;;;4999991;28;20028;-65
2022/04/20 06:16:57;;;;;;;8.02;5.20;;;;;;;;;;4997929;28;22072;-64
2022/04/20 06:19:22;;;;;;;12.70;6.07;;;;;;;;;;4999750;28;20028;-66
2022/04/20 06:21:48;;;;;;;7.55;5.20;;;;;;;;;;5008616;28;20268;-66
2022/04/20 06:24:15;;;;;;;11.60;5.85;;;;;;;;;;4996748;28;20057;-66
2022/04/20 06:26:41;;;;;;;9.60;5.45;;;;;;;;;;5013700;28;20144;-65
2022/04/20 06:29:07;;;;;;;8.50;4.88;;;;;;;;;;4998468;28;20045;-65
2022/04/20 06:31:32;;;;;;;10.05;5.50;;;;;;;;;;4998772;28;20472;-66
2022/04/20 06:34:02;;;;;;;7.10;5.00;;;;;;;;;;4999304;28;20114;-66
2022/04/20 06:36:27;;;;;;;9.25;5.40;;;;;;;;;;4998911;28;20154;-65
2022/04/20 06:38:52;;;;;;;10.98;5.00;;;;;;;;;;5014848;28;20037;-64
2022/04/20 06:41:18;;;;;;;11.38;5.10;;;;;;;;;;4998168;28;20350;-64
2022/04/20 06:43:44;;;;;;;10.77;5.78;;;;;;;;;;5013822;28;20175;-64
2022/04/20 06:46:09;;;;;;;10.88;5.97;;;;;;;;;;4998787;28;20274;-66
2022/04/20 06:48:37;;;;;;;7.50;4.97;;;;;;;;;;4998394;28;20531;-67
2022/04/20 06:51:02;;;;;;;9.93;5.05;;;;;;;;;;5011070;28;20037;-66
2022/04/20 06:59:03;;;;;;;10.82;5.75;;;;;;;;;;4999286;28;20216;-67
2022/04/20 07:01:29;;;;;;;9.13;5.07;;;;;;;;;;4999820;28;20040;-66
2022/04/20 07:03:54;;;;;;;6.88;4.60;;;;;;;;;;4999788;28;20179;-68
2022/04/20 07:06:22;;;;;;;11.00;4.93;;;;;;;;;;4999696;28;20033;-68
2022/04/20 07:08:48;;;;;;;8.98;5.20;;;;;;;;;;4999318;28;20310;-68
2022/04/20 07:11:13;;;;;;;7.82;4.72;;;;;;;;;;4999473;28;20134;-68
2022/04/20 07:13:39;;;;;;;6.93;4.00;;;;;;;;;;4998767;28;20953;-68
2022/04/20 07:16:04;;;;;;;8.10;4.30;;;;;;;;;;5011096;28;20774;-68
2022/04/20 07:18:30;;;;;;;7.43;3.85;;;;;;;;;;5000907;28;20454;-69
2022/04/20 07:20:55;;;;;;;8.30;3.72;;;;;;;;;;5003007;28;20082;-67
2022/04/20 07:23:22;;;;;;;7.43;3.80;;;;;;;;;;5002014;28;20299;-67
2022/04/20 07:25:47;;;;;;;5.43;3.17;;;;;;;;;;5001331;28;20283;-68
2022/04/20 07:28:13;;;;;;;6.53;3.63;;;;;;;;;;5001777;28;20025;-68
2022/04/20 07:30:38;;;;;;;5.03;3.33;;;;;;;;;;5000923;28;20048;-68
2022/04/20 07:33:04;;;;;;;5.03;3.50;;;;;;;;;;4997848;28;20029;-65
2022/04/20 07:35:29;;;;;;;8.18;3.60;;;;;;;;;;5000769;28;20905;-68
2022/04/20 07:37:55;;;;;;;5.85;3.50;;;;;;;;;;5002772;28;20483;-67
2022/04/20 07:40:21;;;;;;;5.28;3.58;;;;;;;;;;5000665;28;20357;-68
2022/04/20 07:42:50;;;;;;;5.50;3.33;;;;;;;;;;5001801;28;20883;-67
2022/04/20 07:45:18;;;;;;;5.63;3.40;;;;;;;;;;4999495;28;20066;-68
2022/04/20 07:47:43;;;;;;;4.63;3.58;;;;;;;;;;5000271;28;20875;-67
2022/04/20 07:50:23;;;;;;;6.55;3.50;;;;;;;;;;5003436;28;20033;-73
2022/04/20 07:52:50;;;;;;;5.32;3.42;;;;;;;;;;5000689;28;20128;-68
2022/04/20 07:55:23;;;;;;;5.32;3.28;;;;;;;;;;5001396;28;20033;-67
2022/04/20 07:57:49;;;;;;;;;;;;;;;;;;5001956;28;20512;-67
2022/04/20 08:00:17;;;;;;;3.85;3.10;;;;;;;;;;5001731;28;20065;-69
2022/04/20 08:02:43;;;;;;;4.43;3.33;;;;;;;;;;5000667;28;20029;-67
2022/04/20 08:05:09;;;;;;;4.55;3.38;;;;;;;;;;5001640;28;20149;-68
2022/04/20 08:07:36;;;;;;;6.40;3.50;;;;;;;;;;4997944;28;20132;-68
2022/04/20 08:10:06;;;;;;;5.25;3.60;;;;;;;;;;5002320;28;20229;-70
2022/04/20 08:12:35;;;;;;;5.88;3.53;;;;;;;;;;5001760;28;20092;-67
2022/04/20 08:15:03;;;;;;;7.18;3.50;;;;;;;;;;4999189;28;20073;-65
2022/04/20 08:17:29;;;;;;;6.10;3.30;;;;;;;;;;5000276;28;20125;-65
2022/04/20 08:19:54;;;;;;;5.50;3.08;;;;;;;;;;5001361;28;20375;-67
2022/04/20 08:22:22;;;;;;;6.28;2.90;;;;;;;;;;4998538;28;20133;-68
2022/04/20 08:24:49;;;;;;;5.72;3.33;;;;;;;;;;5001773;28;20243;-66
2022/04/20 08:27:14;;;;;;;3.90;2.60;;;;;;;;;;5001184;28;20183;-67
2022/04/20 08:29:41;;;;;;;6.63;3.13;;;;;;;;;;5015614;28;20610;-67
2022/04/20 08:32:06;;;;;;;7.30;3.40;;;;;;;;;;4999016;28;20152;-68
2022/04/20 08:34:32;;;;;;;4.32;2.70;;;;;;;;;;5000847;28;20021;-69
2022/04/20 08:36:57;;;;;;;5.88;3.00;;;;;;;;;;5010794;28;20025;-67
2022/04/20 08:39:22;;;;;;;4.95;3.10;;;;;;;;;;5001064;28;20438;-66
2022/04/20 08:41:51;;;;;;;5.25;2.95;;;;;;;;;;5000864;28;20040;-68
2022/04/20 08:44:27;;;;;;;6.05;3.20;;;;;;;;;;4997254;28;20114;-68
2022/04/20 08:47:00;;;;;;;6.10;3.03;;;;;;;;;;5004022;28;20203;-68
2022/04/20 08:49:25;;;;;;;3.63;2.72;;;;;;;;;;5020588;28;20040;-67
2022/04/20 08:54:34;;;;;;;4.25;3.17;;;;;;;;;;4999917;28;20481;-68
2022/04/20 08:57:20;;;;;;;5.38;3.10;;;;;;;;;;5017772;28;20156;-67
2022/04/20 08:59:48;;;;;;;5.60;3.40;;;;;;;;;;5012607;28;20608;-66
2022/04/20 09:02:16;;;;;;;6.88;3.22;;;;;;;;;;5006491;28;20037;-67
2022/04/20 09:04:44;;;;;;;5.68;2.80;;;;;;;;;;5003872;28;20029;-68
2022/04/20 09:07:11;;;;;;;6.15;2.58;;;;;;;;;;5018073;28;20041;-68
2022/04/20 09:09:38;;;;;;;5.05;3.28;;;;;;;;;;5005203;28;20025;-67
2022/04/20 09:12:14;;;;;;;4.82;3.25;;;;;;;;;;5005719;28;22342;-69
2022/04/20 09:14:40;;;;;;;4.95;3.03;;;;;;;;;;5004373;28;20052;-68
2022/04/20 09:17:06;;;;;;;4.45;3.20;;;;;;;;;;5002313;28;20028;-65
2022/04/20 09:19:31;;;;;;;4.28;2.72;;;;;;;;;;5003960;28;20071;-67
2022/04/20 09:21:57;;;;;;;4.28;3.10;;;;;;;;;;5005295;28;20326;-66
2022/04/20 09:24:25;;;;;;;4.18;3.15;;;;;;;;;;5017309;28;20051;-67
2022/04/20 09:26:55;;;;;;;4.03;2.95;;;;;;;;;;5004362;28;20041;-68
2022/04/20 09:29:20;;;;;;;4.90;3.13;;;;;;;;;;5004764;28;20035;-67
2022/04/20 09:31:47;;;;;;;4.18;2.83;;;;;;;;;;5003319;28;20025;-66
2022/04/20 09:34:24;;;;;;;4.20;3.00;;;;;;;;;;5004546;28;20029;-66
2022/04/20 09:36:50;;;;;;;7.15;3.00;;;;;;;;;;5003353;28;20025;-66
2022/04/20 09:39:16;;;;;;;4.53;3.10;;;;;;;;;;5003272;28;20021;-65
2022/04/20 09:42:02;;;;;;;6.40;3.00;;;;;;;;;;5002838;28;20936;-66
2022/04/20 09:44:29;;;;;;;4.88;2.90;;;;;;;;;;5004335;28;21699;-66
2022/04/20 09:49:58;;;;;;;6.38;3.40;;;;;;;;;;5002742;28;20025;-66
2022/04/20 09:52:24;;;;;;;4.80;3.10;;;;;;;;;;5002609;28;20041;-65
2022/04/20 09:54:57;;;;;;;5.50;3.10;;;;;;;;;;5003448;28;20753;-67
2022/04/20 09:57:22;;;;;;;4.90;2.95;;;;;;;;;;5004339;28;20025;-71
2022/04/20 10:00:14;;;;;;;6.18;3.40;;;;;;;;;;5004800;28;20572;-68
2022/04/20 10:02:39;;;;;;;;;;;;;;;;;;5003062;28;20040;-68
2022/04/20 10:05:07;;;;;;;4.00;2.40;;;;;;;;;;5004295;28;19916;-68
2022/04/20 10:07:34;;;;;;;5.78;3.05;;;;;;;;;;5003804;28;20230;-67
2022/04/20 10:09:59;;;;;;;5.65;2.72;;;;;;;;;;5004361;28;20780;-66
2022/04/20 10:12:29;;;;;;;4.32;2.22;;;;;;;;;;5002951;28;20029;-66
2022/04/20 10:17:44;;;;;;;4.80;3.10;;;;;;;;;;5001822;28;20038;-67
2022/04/20 10:20:10;;;;;;;6.20;2.83;;;;;;;;;;5002085;28;20334;-66
2022/04/20 10:22:37;;;;;;;4.60;3.00;;;;;;;;;;5003802;28;20060;-70
2022/04/20 10:25:04;;;;;;;4.85;3.33;;;;;;;;;;5004009;28;20037;-66
2022/04/20 10:27:35;;;;;;;6.55;3.55;;;;;;;;;;5003808;28;20028;-67
2022/04/20 10:30:08;;;;;;;5.32;3.60;;;;;;;;;;5004490;28;20032;-66
2022/04/20 10:33:04;;;;;;;5.97;3.60;;;;;;;;;;5003829;28;20021;-62
2022/04/20 10:35:30;;;;;;;5.30;3.70;;;;;;;;;;5005850;28;20902;-62
2022/04/20 10:38:08;;;;;;;4.72;3.40;;;;;;;;;;5004501;28;20116;-62
2022/04/20 10:40:34;;;;;;;4.85;3.28;;;;;;;;;;5003252;28;20041;-62
2022/04/20 10:43:16;;;;;;;4.47;3.55;;;;;;;;;;5004067;28;20118;-61
2022/04/20 10:45:41;;;;;;;;;;;;;;;;;;5004506;28;20095;-62
2022/04/20 10:48:14;;;;;;;5.45;3.47;;;;;;;;;;5005318;28;21006;-62
2022/04/20 10:50:39;;;;;;;5.30;3.03;;;;;;;;;;5003137;28;20904;-62
2022/04/20 10:53:21;;;;;;;4.72;2.67;;;;;;;;;;5019536;28;20033;-62
2022/04/20 10:55:46;;;;;;;3.90;2.83;;;;;;;;;;5005916;28;20067;-64
2022/04/20 10:58:22;;;;;;;5.43;2.88;;;;;;;;;;5007971;28;20041;-66
2022/04/20 11:01:06;;;;;;;6.38;2.70;;;;;;;;;;5005307;28;20186;-67
2022/04/20 11:03:50;;;;;;;5.80;3.28;;;;;;;;;;4998225;28;20067;-68
2022/04/20 11:06:16;;;;;;;5.90;2.60;;;;;;;;;;4990918;28;20064;-66
2022/04/20 11:08:41;;;;;;;4.30;2.83;;;;;;;;;;5001307;28;20594;-67
2022/04/20 11:19:52;;;;;;;7.55;2.53;;;;;;;;;;5002073;28;20276;-66
2022/04/20 11:22:18;;;;;;;2.55;2.10;;;;;;;;;;5002035;28;20028;-67
2022/04/20 11:24:43;;;;;;;4.10;2.10;;;;;;;;;;5003264;28;20429;-66
2022/04/20 11:27:10;;;;;;;4.68;2.40;;;;;;;;;;5005781;28;20045;-67
2022/04/20 11:29:36;;;;;;;4.55;2.30;;;;;;;;;;5004626;28;20740;-66
2022/04/20 11:32:07;;;;;;;3.97;2.47;;;;;;;;;;5005319;28;20114;-68
2022/04/20 11:34:36;;;;;;;4.00;2.30;;;;;;;;;;4988041;28;20021;-67
2022/04/20 11:37:03;;;;;;;4.63;2.25;;;;;;;;;;5006080;28;20566;-67
2022/04/20 11:39:29;;;;;;;3.22;2.15;;;;;;;;;;5005491;28;20133;-67
2022/04/20 11:41:56;;;;;;;4.78;2.40;;;;;;;;;;5002953;28;20029;-67
2022/04/20 11:44:23;;;;;;;5.25;2.33;;;;;;;;;;5002515;28;21114;-68
2022/04/20 11:46:49;;;;;;;5.22;2.33;;;;;;;;;;5003634;28;20122;-67
2022/04/20 11:49:15;;;;;;;3.50;2.47;;;;;;;;;;5002622;28;20029;-67
2022/04/20 11:51:44;;;;;;;3.97;1.95;;;;;;;;;;5002552;28;20072;-67
2022/04/20 11:54:19;;;;;;;5.72;2.30;;;;;;;;;;5002760;28;20029;-68
2022/04/20 11:56:44;;;;;;;3.72;1.70;;;;;;;;;;5000036;28;20192;-72
2022/04/20 11:59:11;;;;;;;4.50;1.85;;;;;;;;;;5002685;28;20037;-68
2022/04/20 12:01:38;;;;;;;4.45;1.55;;;;;;;;;;5001699;28;20029;-67
2022/04/20 12:04:24;;;;;;;3.78;1.75;;;;;;;;;;5016279;28;20024;-66
2022/04/20 12:06:52;;;;;;;5.32;1.90;;;;;;;;;;4999898;28;20147;-67
2022/04/20 12:09:24;;;;;;;2.05;1.40;;;;;;;;;;5002567;28;20571;-67
2022/04/20 12:11:50;;;;;;;3.58;1.60;;;;;;;;;;5002506;28;20546;-67
2022/04/20 12:14:16;;;;;;;2.20;1.52;;;;;;;;;;5002432;28;20021;-66
2022/04/20 12:16:42;;;;;;;4.00;1.98;;;;;;;;;;5002134;28;20025;-67
2022/04/20 12:19:08;;;;;;;4.45;1.73;;;;;;;;;;5001964;28;20273;-67
2022/04/20 12:21:41;;;;;;;2.63;1.65;;;;;;;;;;5002262;28;20033;-67
2022/04/20 12:24:26;;;;;;;1.92;1.60;;;;;;;;;;5002186;28;20089;-67
2022/04/20 12:26:52;;;;;;;3.85;1.50;;;;;;;;;;5001943;28;20282;-66
2022/04/20 12:29:19;;;;;;;3.78;1.60;;;;;;;;;;5002322;28;20257;-67
2022/04/20 12:31:45;;;;;;;3.40;1.70;;;;;;;;;;5002040;28;20210;-67
2022/04/20 12:34:12;;;;;;;2.85;1.70;;;;;;;;;;5001630;28;20078;-67
2022/04/20 12:36:53;;;;;;;2.03;1.67;;;;;;;;;;5002728;28;20362;-66
2022/04/20 12:39:31;;;;;;;2.45;1.60;;;;;;;;;;5001248;28;20051;-67
2022/04/20 12:42:07;;;;;;;3.53;1.67;;;;;;;;;;5001407;28;20671;-66
2022/04/20 12:44:35;;;;;;;3.25;1.75;;;;;;;;;;5001875;28;20033;-66
2022/04/20 12:47:21;;;;;;;3.90;1.90;;;;;;;;;;5001841;28;20582;-66
2022/04/20 12:49:53;;;;;;;3.63;1.80;;;;;;;;;;5016038;28;20716;-67
2022/04/20 12:52:22;;;;;;;4.07;1.73;;;;;;;;;;5002647;28;20390;-66
2022/04/20 12:55:06;;;;;;;2.90;1.80;;;;;;;;;;5000811;28;20035;-67
2022/04/20 13:03:04;;;;;;;3.80;1.60;;;;;;;;;;5001300;28;20044;-67
2022/04/20 13:05:35;;;;;;;4.03;2.30;;;;;;;;;;5000971;28;20078;-69
2022/04/20 13:08:01;;;;;;;3.63;1.90;;;;;;;;;;4999365;28;20037;-67
2022/04/20 13:10:31;;;;;;;2.58;1.75;;;;;;;;;;5001271;28;20427;-68
2022/04/20 13:12:57;;;;;;;3.85;1.88;;;;;;;;;;5001647;28;20146;-68
2022/04/20 13:15:23;;;;;;;3.10;2.03;;;;;;;;;;4997837;28;20675;-67
2022/04/20 13:17:48;;;;;;;2.70;1.90;;;;;;;;;;5002936;28;20561;-68
2022/04/20 13:20:16;;;;;;;3.17;1.52;;;;;;;;;;5001849;28;20252;-68
2022/04/20 13:22:41;;;;;;;3.42;1.67;;;;;;;;;;5001398;28;20098;-69
2022/04/20 13:27:55;;;;;;;2.47;1.80;;;;;;;;;;5001093;28;20683;-67
2022/04/20 13:30:27;;;;;;;3.88;1.90;;;;;;;;;;4999263;28;20260;-68
2022/04/20 13:32:56;;;;;;;4.60;1.95;;;;;;;;;;5016450;28;20234;-68
2022/04/20 13:35:22;;;;;;;4.38;1.80;;;;;;;;;;5000748;28;20093;-67
2022/04/20 13:37:48;;;;;;;2.45;1.92;;;;;;;;;;5000429;28;20060;-66
2022/04/20 13:40:13;;;;;;;3.08;1.83;;;;;;;;;;4999032;28;20296;-67
2022/04/20 13:42:38;;;;;;;3.10;1.80;;;;;;;;;;5000833;28;20658;-67
2022/04/20 13:45:06;;;;;;;6.30;2.00;;;;;;;;;;5001134;28;20075;-69
2022/04/20 13:47:33;;;;;;;2.88;1.90;;;;;;;;;;4997780;28;20020;-69
2022/04/20 13:49:58;;;;;;;4.22;2.05;;;;;;;;;;4999176;28;20362;-69
2022/04/20 13:52:24;;;;;;;3.88;1.77;;;;;;;;;;5000987;28;20064;-68
2022/04/20 13:54:49;;;;;;;4.32;1.60;;;;;;;;;;5000813;28;20052;-69
2022/04/20 13:57:15;;;;;;;3.47;1.85;;;;;;;;;;5000002;28;21959;-68
2022/04/20 13:59:40;;;;;;;5.00;2.03;;;;;;;;;;5000023;28;20041;-68
2022/04/20 14:02:06;;;;;;;4.13;2.00;;;;;;;;;;5001404;28;20040;-68
2022/04/20 14:04:31;;;;;;;2.97;2.08;;;;;;;;;;4997746;28;20132;-69
2022/04/20 14:06:57;;;;;;;3.53;1.80;;;;;;;;;;5000777;28;21723;-67
2022/04/20 14:09:24;;;;;;;3.13;2.10;;;;;;;;;;5003421;28;20032;-67
2022/04/20 14:11:50;;;;;;;3.25;2.10;;;;;;;;;;4995683;28;20548;-68
2022/04/20 14:14:18;;;;;;;2.47;2.10;;;;;;;;;;4999498;28;20529;-67
2022/04/20 14:16:43;;;;;;;3.05;2.20;;;;;;;;;;5000024;28;20029;-68
2022/04/20 14:19:11;;;;;;;3.85;2.10;;;;;;;;;;4999822;28;20754;-69
2022/04/20 14:21:36;;;;;;;2.95;2.05;;;;;;;;;;5000450;28;20442;-67
2022/04/20 14:24:03;;;;;;;3.58;1.80;;;;;;;;;;5000739;28;20068;-67
2022/04/20 14:32:12;;;;;;;4.47;2.22;;;;;;;;;;4998782;28;20017;-69
2022/04/20 14:34:47;;;;;;;3.42;2.00;;;;;;;;;;4995497;28;20104;-68
2022/04/20 14:37:15;;;;;;;4.05;1.95;;;;;;;;;;5000334;28;20160;-67
2022/04/20 14:39:44;;;;;;;4.18;2.20;;;;;;;;;;4999029;28;20021;-66
2022/04/20 14:42:11;;;;;;;3.30;1.80;;;;;;;;;;5000107;28;20068;-67
2022/04/20 14:44:37;;;;;;;3.35;1.90;;;;;;;;;;4996794;28;20301;-66
2022/04/20 14:47:03;;;;;;;2.20;1.83;;;;;;;;;;5013576;28;20769;-70
2022/04/20 14:49:29;;;;;;;6.00;2.13;;;;;;;;;;5000021;28;20024;-67
2022/04/20 14:51:54;;;;;;;5.55;1.98;;;;;;;;;;4998588;28;20333;-66
2022/04/20 14:54:19;;;;;;;3.25;1.83;;;;;;;;;;4999545;28;20136;-65
2022/04/20 14:56:45;;;;;;;5.65;2.30;;;;;;;;;;4995437;28;20033;-66
2022/04/20 14:59:10;;;;;;;4.00;2.03;;;;;;;;;;4999223;28;20576;-66
2022/04/20 15:01:36;;;;;;;2.30;2.00;;;;;;;;;;4999273;28;20105;-67
2022/04/20 15:04:04;;;;;;;4.78;2.13;;;;;;;;;;5001555;28;20083;-67
2022/04/20 15:06:30;;;;;;;3.58;1.90;;;;;;;;;;5001397;28;20031;-66
2022/04/20 15:08:58;;;;;;;5.43;1.88;;;;;;;;;;5001893;28;20056;-66
2022/04/20 15:11:23;;;;;;;3.22;2.10;;;;;;;;;;4999969;28;20563;-62
2022/04/20 15:13:49;;;;;;;4.53;2.00;;;;;;;;;;5001418;28;20033;-62
2022/04/20 15:16:15;;;;;;;4.53;2.20;;;;;;;;;;5000043;28;20759;-62
2022/04/20 15:18:40;;;;;;;4.00;2.05;;;;;;;;;;5000655;28;20040;-61
2022/04/20 15:21:05;;;;;;;3.70;2.25;;;;;;;;;;5001256;28;20025;-60
2022/04/20 15:23:31;;;;;;;4.35;2.55;;;;;;;;;;5001333;28;20071;-61